createdAt,value
2018-11-20T00:00:36.086Z,0.94
2018-11-20T00:01:36.011Z,0.93
2018-11-20T00:02:35.921Z,0.93
2018-11-20T00:03:35.848Z,0.93
2018-11-20T00:04:35.756Z,0.97
2018-11-20T00:05:35.676Z,0.94
2018-11-20T00:06:35.588Z,0.94
2018-11-20T00:07:35.511Z,0.82
2018-11-20T00:08:35.423Z,0.83
2018-11-20T00:09:35.385Z,0.87
2018-11-20T00:10:35.253Z,0.93
2018-11-20T00:11:35.176Z,0.83
2018-11-20T00:12:35.091Z,0.86
2018-11-20T00:13:35.004Z,0.86
2018-11-20T00:14:34.914Z,0.83
2018-11-20T00:15:34.850Z,0.83
2018-11-20T00:16:34.751Z,0.71
2018-11-20T00:17:34.676Z,0.83
2018-11-20T00:18:34.586Z,0.82
2018-11-20T00:19:34.513Z,0.75
2018-11-20T00:20:34.413Z,0.75
2018-11-20T00:21:34.370Z,0.74
2018-11-20T00:22:34.250Z,0.77
2018-11-20T00:23:34.175Z,0.71
2018-11-20T00:24:34.083Z,0.69
2018-11-20T00:25:34.011Z,0.82
2018-11-20T00:26:33.923Z,0.80
2018-11-20T00:27:33.838Z,0.75
2018-11-20T00:28:33.745Z,0.79
2018-11-20T00:29:33.668Z,0.82
2018-11-20T00:30:33.583Z,0.71
2018-11-20T00:31:33.503Z,0.79
2018-11-20T00:32:33.413Z,0.86
2018-11-20T00:33:33.335Z,0.90
2018-11-20T00:34:33.252Z,0.82
2018-11-20T00:35:34.168Z,0.87
2018-11-20T00:36:33.078Z,0.75
2018-11-20T00:37:33.999Z,0.90
2018-11-20T00:38:32.913Z,0.83
2018-11-20T00:39:32.834Z,0.87
2018-11-20T00:40:32.745Z,0.83
2018-11-20T00:41:32.665Z,0.86
2018-11-20T00:42:32.619Z,0.89
2018-11-20T00:43:32.500Z,0.84
2018-11-20T00:44:32.410Z,0.75
2018-11-20T00:45:32.334Z,0.75
2018-11-20T00:46:32.248Z,0.87
2018-11-20T00:47:32.171Z,0.69
2018-11-20T00:48:32.076Z,0.77
2018-11-20T00:49:31.997Z,0.72
2018-11-20T00:50:31.907Z,0.86
2018-11-20T00:51:31.829Z,0.83
2018-11-20T00:52:31.736Z,0.65
2018-11-20T00:53:31.664Z,0.77
2018-11-20T00:54:31.569Z,0.71
2018-11-20T00:55:31.493Z,0.74
2018-11-20T00:56:31.405Z,0.74
2018-11-20T00:57:31.327Z,0.80
2018-11-20T00:58:31.237Z,0.77
2018-11-20T00:59:31.157Z,0.77
2018-11-20T01:00:31.069Z,0.77
2018-11-20T01:01:30.989Z,0.80
2018-11-20T01:02:30.907Z,0.77
2018-11-20T01:03:30.833Z,0.83
2018-11-20T01:04:30.736Z,0.77
2018-11-20T01:05:30.700Z,0.77
2018-11-20T01:06:30.567Z,0.68
2018-11-20T01:07:30.491Z,0.77
2018-11-20T01:08:30.398Z,0.74
2018-11-20T01:09:30.320Z,0.72
2018-11-20T01:10:30.236Z,0.71
2018-11-20T01:11:30.153Z,0.77
2018-11-20T01:12:30.065Z,0.74
2018-11-20T01:13:29.983Z,0.75
2018-11-20T01:14:29.895Z,0.66
2018-11-20T01:15:29.824Z,0.64
2018-11-20T01:16:29.730Z,0.72
2018-11-20T01:17:29.654Z,0.66
2018-11-20T01:18:29.559Z,0.66
2018-11-20T01:19:29.488Z,0.77
2018-11-20T01:20:29.399Z,0.72
2018-11-20T01:21:29.319Z,0.72
2018-11-20T01:22:29.228Z,0.77
2018-11-20T01:23:29.161Z,0.79
2018-11-20T01:24:29.059Z,0.77
2018-11-20T01:25:28.983Z,0.79
2018-11-20T01:26:28.894Z,0.82
2018-11-20T01:27:28.817Z,0.79
2018-11-20T01:28:28.729Z,0.77
2018-11-20T01:29:28.648Z,0.71
2018-11-20T01:30:28.562Z,0.65
2018-11-20T01:31:28.485Z,0.71
2018-11-20T01:32:28.391Z,0.69
2018-11-20T01:33:28.315Z,0.71
2018-11-20T01:34:28.221Z,0.69
2018-11-20T01:35:28.148Z,0.75
2018-11-20T01:36:28.061Z,0.71
2018-11-20T01:37:27.982Z,0.82
2018-11-20T01:38:27.888Z,0.77
2018-11-20T01:39:27.813Z,0.74
2018-11-20T01:40:27.719Z,0.75
2018-11-20T01:41:27.687Z,0.79
2018-11-20T01:42:27.554Z,0.77
2018-11-20T01:43:27.476Z,0.77
2018-11-20T01:44:27.388Z,0.74
2018-11-20T01:45:27.312Z,0.66
2018-11-20T01:46:27.215Z,0.66
2018-11-20T01:47:27.144Z,0.72
2018-11-20T01:48:27.056Z,0.68
2018-11-20T01:49:26.974Z,0.74
2018-11-20T01:50:26.881Z,0.66
2018-11-20T01:51:26.890Z,0.66
2018-11-20T01:52:26.718Z,0.72
2018-11-20T01:53:26.642Z,0.66
2018-11-20T01:54:26.557Z,0.68
2018-11-20T01:55:26.480Z,0.64
2018-11-20T01:56:26.382Z,0.65
2018-11-20T01:57:26.304Z,0.69
2018-11-20T01:58:26.225Z,0.71
2018-11-20T01:59:26.139Z,0.65
2018-11-20T02:00:26.049Z,0.69
2018-11-20T02:01:25.970Z,0.75
2018-11-20T02:02:25.884Z,0.71
2018-11-20T02:03:25.805Z,0.64
2018-11-20T02:04:25.709Z,0.69
2018-11-20T02:05:25.637Z,0.79
2018-11-20T02:06:25.544Z,0.62
2018-11-20T02:07:25.467Z,0.65
2018-11-20T02:08:25.376Z,0.71
2018-11-20T02:09:25.299Z,0.69
2018-11-20T02:10:25.214Z,0.65
2018-11-20T02:11:25.142Z,0.57
2018-11-20T02:12:25.041Z,0.64
2018-11-20T02:13:24.976Z,0.64
2018-11-20T02:14:24.871Z,0.68
2018-11-20T02:15:24.799Z,0.66
2018-11-20T02:16:24.711Z,0.62
2018-11-20T02:17:24.629Z,0.69
2018-11-20T02:18:24.534Z,0.71
2018-11-20T02:19:24.471Z,0.69
2018-11-20T02:20:24.375Z,0.53
2018-11-20T02:21:24.297Z,0.56
2018-11-20T02:22:24.205Z,0.64
2018-11-20T02:23:24.136Z,0.57
2018-11-20T02:24:24.038Z,0.50
2018-11-20T02:25:23.964Z,0.56
2018-11-20T02:26:23.875Z,0.57
2018-11-20T02:27:23.797Z,0.57
2018-11-20T02:28:23.716Z,0.62
2018-11-20T02:29:23.627Z,0.62
2018-11-20T02:30:23.534Z,0.56
2018-11-20T02:31:23.461Z,0.53
2018-11-20T02:32:23.370Z,0.47
2018-11-20T02:33:24.289Z,0.49
2018-11-20T02:34:23.202Z,0.53
2018-11-20T02:35:23.126Z,0.50
2018-11-20T02:36:23.035Z,0.52
2018-11-20T02:37:22.953Z,0.50
2018-11-20T02:38:22.878Z,0.49
2018-11-20T02:39:22.787Z,0.50
2018-11-20T02:40:22.699Z,0.56
2018-11-20T02:41:22.621Z,0.62
2018-11-20T02:42:22.528Z,0.62
2018-11-20T02:43:22.452Z,0.66
2018-11-20T02:44:22.369Z,0.57
2018-11-20T02:45:22.284Z,0.56
2018-11-20T02:46:22.196Z,0.62
2018-11-20T02:47:22.442Z,0.53
2018-11-20T02:48:22.030Z,0.65
2018-11-20T02:49:22.010Z,0.53
2018-11-20T02:50:21.864Z,0.61
2018-11-20T02:51:21.791Z,0.61
2018-11-20T02:52:21.698Z,0.52
2018-11-20T02:53:21.617Z,0.57
2018-11-20T02:54:21.526Z,0.61
2018-11-20T02:55:21.448Z,0.57
2018-11-20T02:56:21.367Z,0.53
2018-11-20T02:57:21.284Z,0.53
2018-11-20T02:58:21.188Z,0.52
2018-11-20T02:59:21.121Z,0.57
2018-11-20T03:00:21.022Z,0.66
2018-11-20T03:01:20.953Z,0.57
2018-11-20T03:02:20.852Z,0.59
2018-11-20T03:03:20.781Z,0.66
2018-11-20T03:04:20.688Z,0.61
2018-11-20T03:05:21.610Z,0.62
2018-11-20T03:06:20.528Z,0.65
2018-11-20T03:07:20.446Z,0.68
2018-11-20T03:08:20.355Z,0.66
2018-11-20T03:09:20.284Z,0.71
2018-11-20T03:10:20.185Z,0.65
2018-11-20T03:11:20.108Z,0.72
2018-11-20T03:12:20.017Z,0.59
2018-11-20T03:13:19.945Z,0.59
2018-11-20T03:14:19.850Z,0.64
2018-11-20T03:15:19.774Z,0.59
2018-11-20T03:16:19.681Z,0.59
2018-11-20T03:17:19.610Z,0.61
2018-11-20T03:18:19.523Z,0.61
2018-11-20T03:19:19.442Z,0.59
2018-11-20T03:20:19.345Z,0.61
2018-11-20T03:21:19.271Z,0.57
2018-11-20T03:22:19.185Z,0.62
2018-11-20T03:23:19.108Z,0.59
2018-11-20T03:24:19.011Z,0.53
2018-11-20T03:25:18.938Z,0.61
2018-11-20T03:26:18.845Z,0.59
2018-11-20T03:27:18.775Z,0.53
2018-11-20T03:28:18.680Z,0.56
2018-11-20T03:29:18.601Z,0.61
2018-11-20T03:30:18.511Z,0.57
2018-11-20T03:31:18.436Z,0.53
2018-11-20T03:32:18.343Z,0.49
2018-11-20T03:33:18.265Z,0.50
2018-11-20T03:34:18.179Z,0.56
2018-11-20T03:35:18.101Z,0.64
2018-11-20T03:36:18.056Z,0.64
2018-11-20T03:37:17.930Z,0.56
2018-11-20T03:38:17.839Z,0.61
2018-11-20T03:39:18.760Z,0.64
2018-11-20T03:40:17.677Z,0.64
2018-11-20T03:41:17.591Z,0.56
2018-11-20T03:42:17.504Z,0.61
2018-11-20T03:43:17.436Z,0.62
2018-11-20T03:44:17.357Z,0.68
2018-11-20T03:45:17.259Z,0.66
2018-11-20T03:46:17.168Z,0.59
2018-11-20T03:47:17.093Z,0.64
2018-11-20T03:48:17.002Z,0.71
2018-11-20T03:49:16.926Z,0.68
2018-11-20T03:50:16.835Z,0.61
2018-11-20T03:51:16.762Z,0.59
2018-11-20T03:52:16.678Z,0.56
2018-11-20T03:53:16.590Z,0.62
2018-11-20T03:54:16.500Z,0.57
2018-11-20T03:55:16.424Z,0.56
2018-11-20T03:56:16.333Z,0.53
2018-11-20T03:57:16.260Z,0.52
2018-11-20T03:58:16.166Z,0.53
2018-11-20T03:59:16.089Z,0.50
2018-11-20T04:00:16.000Z,0.52
2018-11-20T04:01:15.924Z,0.50
2018-11-20T04:02:15.830Z,0.61
2018-11-20T04:03:15.756Z,0.62
2018-11-20T04:04:15.663Z,0.53
2018-11-20T04:05:15.584Z,0.53
2018-11-20T04:06:15.501Z,0.57
2018-11-20T04:07:15.419Z,0.50
2018-11-20T04:08:15.334Z,0.59
2018-11-20T04:09:15.252Z,0.59
2018-11-20T04:10:15.158Z,0.61
2018-11-20T04:11:15.087Z,0.65
2018-11-20T04:12:14.993Z,0.71
2018-11-20T04:13:14.923Z,0.65
2018-11-20T04:14:14.826Z,0.66
2018-11-20T04:15:14.755Z,0.65
2018-11-20T04:16:14.659Z,0.66
2018-11-20T04:17:14.579Z,0.62
2018-11-20T04:18:14.489Z,0.72
2018-11-20T04:19:14.414Z,0.69
2018-11-20T04:20:14.325Z,0.66
2018-11-20T04:21:14.246Z,0.66
2018-11-20T04:22:14.156Z,0.66
2018-11-20T04:23:14.083Z,0.59
2018-11-20T04:24:13.989Z,0.64
2018-11-20T04:25:13.914Z,0.64
2018-11-20T04:26:13.824Z,0.62
2018-11-20T04:27:13.745Z,0.65
2018-11-20T04:28:13.654Z,0.69
2018-11-20T04:29:13.577Z,0.69
2018-11-20T04:30:13.488Z,0.71
2018-11-20T04:31:13.417Z,0.69
2018-11-20T04:32:13.324Z,0.68
2018-11-20T04:33:13.246Z,0.65
2018-11-20T04:34:13.154Z,0.77
2018-11-20T04:35:13.074Z,0.82
2018-11-20T04:36:12.984Z,0.75
2018-11-20T04:37:12.922Z,0.71
2018-11-20T04:38:12.823Z,0.72
2018-11-20T04:39:12.740Z,0.74
2018-11-20T04:40:12.650Z,0.71
2018-11-20T04:41:12.645Z,0.74
2018-11-20T04:42:12.493Z,0.71
2018-11-20T04:43:12.406Z,0.65
2018-11-20T04:44:12.315Z,0.66
2018-11-20T04:45:13.238Z,0.64
2018-11-20T04:46:12.147Z,0.61
2018-11-20T04:47:12.070Z,0.50
2018-11-20T04:48:11.982Z,0.56
2018-11-20T04:49:11.905Z,0.52
2018-11-20T04:50:11.812Z,0.53
2018-11-20T04:51:11.743Z,0.56
2018-11-20T04:52:11.644Z,0.53
2018-11-20T04:53:11.570Z,0.45
2018-11-20T04:54:11.480Z,0.46
2018-11-20T04:55:11.407Z,0.47
2018-11-20T04:56:11.311Z,0.47
2018-11-20T04:57:11.310Z,0.46
2018-11-20T04:58:11.144Z,0.50
2018-11-20T04:59:11.066Z,0.52
2018-11-20T05:00:10.985Z,0.56
2018-11-20T05:01:10.900Z,0.52
2018-11-20T05:02:10.809Z,0.56
2018-11-20T05:03:10.741Z,0.49
2018-11-20T05:04:10.642Z,0.52
2018-11-20T05:05:10.563Z,0.50
2018-11-20T05:06:10.468Z,0.52
2018-11-20T05:07:10.399Z,0.62
2018-11-20T05:08:10.317Z,0.62
2018-11-20T05:09:10.229Z,0.59
2018-11-20T05:10:10.138Z,0.65
2018-11-20T05:11:10.062Z,0.74
2018-11-20T05:12:09.971Z,0.69
2018-11-20T05:13:09.899Z,0.79
2018-11-20T05:14:09.803Z,0.77
2018-11-20T05:15:09.748Z,0.83
2018-11-20T05:16:09.635Z,0.79
2018-11-20T05:17:09.560Z,0.84
2018-11-20T05:18:09.476Z,0.83
2018-11-20T05:19:09.391Z,0.82
2018-11-20T05:20:09.300Z,0.84
2018-11-20T05:21:09.225Z,0.93
2018-11-20T05:22:09.134Z,0.90
2018-11-20T05:23:09.067Z,0.97
2018-11-20T05:24:08.967Z,0.93
2018-11-20T05:25:08.889Z,1.05
2018-11-20T05:26:08.803Z,1.10
2018-11-20T05:27:09.813Z,1.18
2018-11-20T05:28:08.796Z,1.16
2018-11-20T05:29:08.707Z,1.18
2018-11-20T05:30:08.469Z,1.18
2018-11-20T05:31:08.558Z,1.11
2018-11-20T05:32:08.299Z,1.10
2018-11-20T05:33:08.275Z,1.20
2018-11-20T05:34:08.131Z,1.26
2018-11-20T05:35:08.082Z,1.29
2018-11-20T05:36:07.964Z,1.08
2018-11-20T05:37:07.995Z,1.22
2018-11-20T05:38:07.796Z,1.19
2018-11-20T05:39:07.800Z,1.20
2018-11-20T05:40:07.669Z,1.22
2018-11-20T05:41:07.551Z,1.16
2018-11-20T05:42:07.461Z,1.25
2018-11-20T05:43:07.421Z,1.19
2018-11-20T05:44:07.294Z,1.29
2018-11-20T05:45:07.326Z,1.29
2018-11-20T05:46:07.129Z,1.28
2018-11-20T05:47:07.134Z,1.29
2018-11-20T05:48:06.963Z,1.22
2018-11-20T05:49:06.946Z,1.30
2018-11-20T05:50:06.792Z,1.38
2018-11-20T05:51:06.718Z,1.37
2018-11-20T05:52:06.633Z,1.28
2018-11-20T05:53:06.541Z,1.41
2018-11-20T05:54:06.462Z,1.38
2018-11-20T05:55:06.383Z,1.36
2018-11-20T05:56:06.315Z,1.40
2018-11-20T05:57:06.207Z,1.48
2018-11-20T05:58:06.171Z,1.28
2018-11-20T05:59:06.042Z,1.40
2018-11-20T06:00:05.967Z,1.40
2018-11-20T06:01:05.872Z,1.46
2018-11-20T06:02:05.798Z,1.47
2018-11-20T06:03:05.709Z,1.38
2018-11-20T06:04:05.708Z,1.46
2018-11-20T06:05:05.540Z,1.50
2018-11-20T06:06:05.608Z,1.52
2018-11-20T06:07:05.379Z,1.54
2018-11-20T06:08:05.328Z,1.48
2018-11-20T06:09:05.205Z,1.47
2018-11-20T06:10:05.247Z,1.47
2018-11-20T06:11:05.038Z,1.65
2018-11-20T06:12:05.047Z,1.65
2018-11-20T06:13:04.879Z,1.62
2018-11-20T06:14:04.795Z,1.59
2018-11-20T06:15:04.703Z,1.58
2018-11-20T06:16:04.627Z,1.58
2018-11-20T06:17:04.536Z,1.61
2018-11-20T06:18:04.461Z,1.68
2018-11-20T06:19:04.435Z,1.62
2018-11-20T06:20:04.304Z,1.68
2018-11-20T06:21:04.210Z,1.69
2018-11-20T06:22:04.125Z,1.64
2018-11-20T06:23:04.042Z,1.61
2018-11-20T06:24:03.997Z,1.69
2018-11-20T06:25:03.873Z,1.72
2018-11-20T06:26:03.814Z,1.66
2018-11-20T06:27:03.703Z,1.68
2018-11-20T06:28:03.716Z,1.66
2018-11-20T06:29:03.596Z,1.79
2018-11-20T06:30:03.529Z,1.79
2018-11-20T06:31:03.368Z,1.77
2018-11-20T06:32:03.341Z,1.83
2018-11-20T06:33:03.204Z,1.83
2018-11-20T06:34:03.144Z,1.82
2018-11-20T06:35:03.198Z,1.82
2018-11-20T06:36:03.052Z,1.92
2018-11-20T06:37:02.870Z,1.95
2018-11-20T06:38:02.796Z,1.95
2018-11-20T06:39:02.704Z,2.01
2018-11-20T06:40:02.672Z,1.83
2018-11-20T06:41:02.583Z,1.90
2018-11-20T06:42:02.489Z,1.95
2018-11-20T06:43:02.369Z,1.92
2018-11-20T06:44:02.390Z,1.92
2018-11-20T06:45:02.202Z,1.91
2018-11-20T06:46:02.195Z,1.99
2018-11-20T06:47:02.078Z,2.05
2018-11-20T06:48:02.008Z,1.95
2018-11-20T06:49:01.866Z,1.98
2018-11-20T06:50:01.822Z,1.95
2018-11-20T06:51:01.703Z,1.94
2018-11-20T06:52:01.629Z,1.94
2018-11-20T06:53:01.637Z,2.01
2018-11-20T06:54:01.548Z,2.09
2018-11-20T06:55:01.370Z,2.05
2018-11-20T06:56:01.347Z,2.05
2018-11-20T06:57:01.208Z,2.12
2018-11-20T06:58:01.152Z,2.13
2018-11-20T06:59:01.036Z,2.10
2018-11-20T07:00:01.062Z,2.09
2018-11-20T07:01:00.874Z,2.14
2018-11-20T07:02:00.879Z,2.19
2018-11-20T07:03:00.704Z,2.24
2018-11-20T07:04:00.678Z,2.14
2018-11-20T07:05:00.538Z,2.20
2018-11-20T07:06:00.486Z,2.12
2018-11-20T07:07:00.405Z,2.21
2018-11-20T07:08:00.510Z,2.19
2018-11-20T07:09:00.204Z,2.21
2018-11-20T07:10:00.209Z,2.19
2018-11-20T07:11:00.041Z,2.26
2018-11-20T07:12:00.024Z,2.24
2018-11-20T07:12:59.877Z,2.28
2018-11-20T07:13:59.825Z,2.24
2018-11-20T07:14:59.733Z,2.30
2018-11-20T07:16:00.062Z,2.31
2018-11-20T07:16:59.540Z,2.38
2018-11-20T07:17:59.542Z,2.37
2018-11-20T07:18:59.378Z,2.34
2018-11-20T07:19:59.353Z,2.42
2018-11-20T07:20:59.209Z,2.38
2018-11-20T07:21:59.159Z,2.35
2018-11-20T07:22:59.043Z,2.37
2018-11-20T07:23:59.078Z,2.39
2018-11-20T07:24:58.879Z,2.37
2018-11-20T07:25:58.882Z,2.39
2018-11-20T07:26:58.716Z,2.34
2018-11-20T07:27:58.686Z,2.38
2018-11-20T07:28:58.546Z,2.32
2018-11-20T07:29:58.551Z,2.34
2018-11-20T07:30:58.624Z,2.49
2018-11-20T07:31:58.438Z,2.50
2018-11-20T07:32:58.217Z,2.39
2018-11-20T07:33:58.215Z,2.38
2018-11-20T07:34:58.050Z,2.50
2018-11-20T07:35:58.034Z,2.53
2018-11-20T07:36:57.923Z,2.52
2018-11-20T07:37:57.831Z,2.62
2018-11-20T07:38:57.715Z,2.60
2018-11-20T07:39:57.745Z,2.59
2018-11-20T07:40:57.548Z,2.50
2018-11-20T07:41:57.549Z,2.53
2018-11-20T07:42:57.379Z,2.52
2018-11-20T07:43:57.568Z,2.50
2018-11-20T07:44:57.219Z,2.59
2018-11-20T07:45:57.167Z,2.62
2018-11-20T07:46:57.059Z,2.56
2018-11-20T07:47:57.081Z,2.70
2018-11-20T07:48:56.884Z,2.80
2018-11-20T07:49:56.887Z,2.70
2018-11-20T07:50:56.719Z,2.78
2018-11-20T07:51:56.693Z,2.81
2018-11-20T07:52:56.554Z,2.77
2018-11-20T07:53:56.512Z,2.77
2018-11-20T07:54:56.395Z,2.78
2018-11-20T07:55:56.468Z,2.81
2018-11-20T07:56:56.226Z,2.71
2018-11-20T07:57:56.229Z,2.80
2018-11-20T07:58:56.057Z,2.80
2018-11-20T07:59:55.980Z,2.85
2018-11-20T08:00:56.028Z,2.95
2018-11-20T08:01:55.809Z,2.88
2018-11-20T08:02:55.739Z,2.86
2018-11-20T08:03:55.643Z,2.86
2018-11-20T08:04:55.749Z,2.77
2018-11-20T08:05:55.478Z,2.73
2018-11-20T08:06:55.563Z,2.84
2018-11-20T08:07:55.315Z,2.78
2018-11-20T08:08:55.366Z,2.78
2018-11-20T08:09:55.150Z,2.78
2018-11-20T08:10:55.174Z,2.66
2018-11-20T08:11:54.979Z,2.56
2018-11-20T08:12:55.090Z,2.48
2018-11-20T08:13:54.813Z,2.50
2018-11-20T08:14:54.902Z,2.49
2018-11-20T08:15:54.692Z,2.48
2018-11-20T08:16:54.699Z,2.46
2018-11-20T08:17:54.483Z,2.38
2018-11-20T08:18:54.624Z,2.31
2018-11-20T08:19:54.317Z,2.32
2018-11-20T08:20:54.432Z,2.24
2018-11-20T08:21:54.151Z,2.24
2018-11-20T08:22:54.235Z,2.26
2018-11-20T08:23:53.997Z,2.31
2018-11-20T08:24:54.043Z,2.38
2018-11-20T08:25:53.927Z,2.38
2018-11-20T08:26:53.955Z,2.34
2018-11-20T08:27:53.654Z,2.35
2018-11-20T08:28:53.781Z,2.32
2018-11-20T08:29:53.494Z,2.35
2018-11-20T08:30:53.600Z,2.34
2018-11-20T08:31:53.325Z,2.32
2018-11-20T08:32:54.407Z,2.37
2018-11-20T08:33:53.158Z,2.37
2018-11-20T08:34:53.352Z,2.42
2018-11-20T08:35:52.992Z,2.38
2018-11-20T08:36:53.099Z,2.37
2018-11-20T08:37:52.828Z,2.32
2018-11-20T08:38:53.935Z,2.37
2018-11-20T08:39:52.672Z,2.35
2018-11-20T08:40:52.718Z,2.35
2018-11-20T08:41:52.498Z,2.39
2018-11-20T08:42:52.630Z,2.34
2018-11-20T08:43:52.333Z,2.37
2018-11-20T08:44:52.247Z,2.35
2018-11-20T08:45:52.341Z,2.28
2018-11-20T08:46:52.080Z,2.30
2018-11-20T08:47:52.232Z,2.34
2018-11-20T08:48:51.924Z,2.34
2018-11-20T08:49:51.963Z,2.32
2018-11-20T08:50:51.752Z,2.32
2018-11-20T08:51:51.875Z,2.30
2018-11-20T08:52:51.624Z,2.38
2018-11-20T08:53:51.800Z,2.34
2018-11-20T08:54:51.419Z,2.31
2018-11-20T08:55:51.499Z,2.39
2018-11-20T08:56:51.253Z,2.37
2018-11-20T08:57:51.299Z,2.37
2018-11-20T08:58:51.096Z,2.39
2018-11-20T08:59:51.213Z,2.37
2018-11-20T09:00:50.926Z,2.44
2018-11-20T09:01:51.023Z,2.38
2018-11-20T09:02:50.838Z,2.49
2018-11-20T09:03:50.834Z,2.42
2018-11-20T09:04:50.590Z,2.52
2018-11-20T09:05:50.639Z,2.39
2018-11-20T09:06:50.427Z,2.39
2018-11-20T09:07:50.550Z,2.55
2018-11-20T09:08:50.263Z,2.57
2018-11-20T09:09:50.411Z,2.59
2018-11-20T09:10:50.101Z,2.52
2018-11-20T09:11:50.163Z,2.55
2018-11-20T09:12:49.932Z,2.55
2018-11-20T09:13:50.079Z,2.62
2018-11-20T09:14:49.767Z,2.55
2018-11-20T09:15:49.789Z,2.49
2018-11-20T09:16:49.600Z,2.56
2018-11-20T09:17:49.598Z,2.63
2018-11-20T09:18:49.434Z,2.66
2018-11-20T09:19:49.404Z,2.56
2018-11-20T09:20:49.267Z,2.71
2018-11-20T09:21:49.316Z,2.66
2018-11-20T09:22:49.102Z,2.75
2018-11-20T09:23:49.125Z,2.68
2018-11-20T09:24:48.938Z,2.70
2018-11-20T09:25:49.044Z,2.80
2018-11-20T09:26:48.783Z,2.75
2018-11-20T09:27:48.801Z,2.85
2018-11-20T09:28:48.604Z,2.78
2018-11-20T09:29:48.658Z,2.74
2018-11-20T09:30:48.445Z,2.84
2018-11-20T09:31:48.487Z,2.78
2018-11-20T09:32:48.278Z,2.84
2018-11-20T09:33:48.257Z,2.80
2018-11-20T09:34:48.160Z,2.81
2018-11-20T09:35:48.183Z,2.84
2018-11-20T09:36:47.949Z,2.81
2018-11-20T09:37:47.992Z,2.80
2018-11-20T09:38:47.785Z,2.85
2018-11-20T09:39:47.800Z,2.92
2018-11-20T09:40:47.618Z,2.96
2018-11-20T09:41:47.609Z,2.99
2018-11-20T09:42:47.452Z,2.98
2018-11-20T09:43:47.418Z,3.03
2018-11-20T09:44:47.290Z,3.01
2018-11-20T09:45:47.331Z,2.98
2018-11-20T09:46:47.126Z,2.99
2018-11-20T09:47:47.139Z,2.96
2018-11-20T09:48:46.957Z,2.96
2018-11-20T09:49:46.884Z,3.06
2018-11-20T09:50:46.855Z,2.95
2018-11-20T09:51:46.708Z,3.03
2018-11-20T09:52:46.825Z,3.04
2018-11-20T09:53:46.539Z,3.06
2018-11-20T09:54:46.573Z,3.07
2018-11-20T09:55:46.381Z,3.16
2018-11-20T09:56:46.387Z,3.03
2018-11-20T09:57:46.218Z,3.16
2018-11-20T09:58:46.196Z,3.16
2018-11-20T09:59:46.128Z,3.11
2018-11-20T10:00:46.103Z,3.13
2018-11-20T10:01:45.890Z,3.21
2018-11-20T10:02:45.912Z,3.22
2018-11-20T10:03:45.832Z,3.28
2018-11-20T10:04:45.723Z,3.17
2018-11-20T10:05:45.555Z,3.19
2018-11-20T10:06:45.487Z,3.14
2018-11-20T10:07:45.434Z,3.14
2018-11-20T10:08:45.333Z,3.24
2018-11-20T10:09:45.344Z,3.22
2018-11-20T10:10:45.144Z,3.28
2018-11-20T10:11:45.153Z,3.22
2018-11-20T10:12:44.977Z,3.31
2018-11-20T10:13:44.961Z,3.34
2018-11-20T10:14:44.954Z,3.32
2018-11-20T10:15:44.881Z,3.28
2018-11-20T10:16:44.649Z,3.32
2018-11-20T10:17:44.684Z,3.37
2018-11-20T10:18:44.489Z,3.27
2018-11-20T10:19:44.494Z,3.29
2018-11-20T10:20:44.385Z,3.31
2018-11-20T10:21:44.303Z,3.25
2018-11-20T10:22:44.156Z,3.39
2018-11-20T10:23:44.234Z,3.35
2018-11-20T10:24:44.107Z,3.34
2018-11-20T10:25:44.281Z,3.28
2018-11-20T10:26:43.828Z,3.34
2018-11-20T10:27:43.834Z,3.25
2018-11-20T10:28:43.661Z,3.35
2018-11-20T10:29:43.639Z,3.31
2018-11-20T10:30:43.503Z,3.29
2018-11-20T10:31:43.549Z,3.34
2018-11-20T10:32:43.336Z,3.39
2018-11-20T10:33:43.361Z,3.28
2018-11-20T10:34:43.300Z,3.31
2018-11-20T10:35:43.171Z,3.32
2018-11-20T10:36:43.005Z,3.31
2018-11-20T10:37:42.978Z,3.34
2018-11-20T10:38:42.840Z,3.31
2018-11-20T10:39:42.755Z,3.31
2018-11-20T10:40:42.775Z,3.32
2018-11-20T10:41:42.700Z,3.35
2018-11-20T10:42:42.510Z,3.32
2018-11-20T10:43:42.618Z,3.32
2018-11-20T10:44:42.345Z,3.43
2018-11-20T10:45:42.420Z,3.43
2018-11-20T10:46:42.281Z,3.43
2018-11-20T10:47:42.242Z,3.46
2018-11-20T10:48:42.013Z,3.44
2018-11-20T10:49:42.039Z,3.41
2018-11-20T10:50:41.854Z,3.37
2018-11-20T10:51:41.770Z,3.50
2018-11-20T10:52:41.785Z,3.50
2018-11-20T10:53:41.610Z,3.50
2018-11-20T10:54:41.665Z,3.50
2018-11-20T10:55:41.980Z,3.57
2018-11-20T10:56:41.470Z,3.56
2018-11-20T10:57:41.277Z,3.46
2018-11-20T10:58:41.280Z,3.50
2018-11-20T10:59:41.201Z,3.48
2018-11-20T11:00:41.089Z,3.53
2018-11-20T11:01:40.949Z,3.50
2018-11-20T11:02:42.163Z,3.54
2018-11-20T11:03:40.905Z,3.51
2018-11-20T11:04:40.709Z,3.46
2018-11-20T11:05:40.716Z,3.48
2018-11-20T11:06:40.734Z,3.48
2018-11-20T11:07:40.667Z,3.43
2018-11-20T11:08:40.373Z,3.47
2018-11-20T11:09:40.436Z,3.48
2018-11-20T11:10:40.207Z,3.51
2018-11-20T11:11:40.368Z,3.54
2018-11-20T11:12:40.092Z,3.66
2018-11-20T11:13:40.054Z,3.53
2018-11-20T11:14:39.994Z,3.64
2018-11-20T11:15:39.860Z,3.61
2018-11-20T11:16:39.712Z,3.57
2018-11-20T11:17:39.628Z,3.59
2018-11-20T11:18:39.603Z,3.62
2018-11-20T11:19:39.586Z,3.56
2018-11-20T11:20:39.501Z,3.61
2018-11-20T11:21:39.399Z,3.62
2018-11-20T11:22:39.220Z,3.62
2018-11-20T11:23:39.304Z,3.59
2018-11-20T11:24:39.056Z,3.64
2018-11-20T11:25:39.117Z,3.54
2018-11-20T11:26:38.896Z,3.68
2018-11-20T11:27:38.923Z,3.62
2018-11-20T11:28:38.735Z,3.65
2018-11-20T11:29:38.736Z,3.75
2018-11-20T11:30:38.567Z,3.75
2018-11-20T11:31:38.641Z,3.75
2018-11-20T11:32:38.418Z,3.62
2018-11-20T11:33:38.457Z,3.72
2018-11-20T11:34:38.238Z,3.71
2018-11-20T11:35:38.268Z,3.65
2018-11-20T11:36:38.072Z,3.66
2018-11-20T11:37:37.993Z,3.65
2018-11-20T11:38:37.913Z,3.68
2018-11-20T11:39:37.985Z,3.72
2018-11-20T11:40:37.751Z,3.74
2018-11-20T11:41:37.732Z,3.74
2018-11-20T11:42:37.581Z,3.65
2018-11-20T11:43:37.603Z,3.66
2018-11-20T11:44:37.415Z,3.64
2018-11-20T11:45:37.512Z,3.77
2018-11-20T11:46:37.252Z,3.71
2018-11-20T11:47:37.177Z,3.71
2018-11-20T11:48:37.224Z,3.66
2018-11-20T11:49:37.007Z,3.74
2018-11-20T11:50:37.033Z,3.71
2018-11-20T11:51:36.845Z,3.75
2018-11-20T11:52:36.840Z,3.69
2018-11-20T11:53:36.684Z,3.74
2018-11-20T11:54:36.758Z,3.74
2018-11-20T11:55:36.522Z,3.72
2018-11-20T11:56:36.566Z,3.80
2018-11-20T11:57:36.351Z,3.83
2018-11-20T11:58:36.369Z,3.84
2018-11-20T11:59:36.194Z,3.84
2018-11-20T12:00:36.100Z,3.84
2018-11-20T12:03:35.999Z,3.98
2018-11-20T12:04:35.775Z,3.90
2018-11-20T12:05:35.813Z,3.86
2018-11-20T12:06:35.614Z,3.87
2018-11-20T12:07:35.612Z,4.00
2018-11-20T12:08:35.450Z,4.00
2018-11-20T12:09:35.525Z,3.97
2018-11-20T12:10:36.441Z,3.89
2018-11-20T12:11:35.335Z,3.90
2018-11-20T12:12:35.121Z,3.89
2018-11-20T12:13:35.146Z,3.98
2018-11-20T12:14:34.956Z,3.86
2018-11-20T12:15:35.053Z,3.90
2018-11-20T12:16:34.796Z,3.86
2018-11-20T12:17:34.767Z,4.01
2018-11-20T12:18:34.632Z,4.00
2018-11-20T12:19:34.553Z,3.98
2018-11-20T12:20:34.465Z,4.01
2018-11-20T12:21:34.479Z,4.02
2018-11-20T12:22:34.302Z,4.01
2018-11-20T12:23:34.292Z,4.10
2018-11-20T12:24:34.137Z,4.05
2018-11-20T12:25:35.120Z,4.08
2018-11-20T12:26:33.970Z,4.05
2018-11-20T12:27:34.018Z,4.04
2018-11-20T12:28:34.752Z,4.02
2018-11-20T12:29:34.856Z,4.04
2018-11-20T12:30:34.812Z,4.07
2018-11-20T12:31:33.634Z,4.10
2018-11-20T12:32:33.482Z,4.10
2018-11-20T12:33:33.437Z,4.11
2018-11-20T12:34:33.318Z,4.10
2018-11-20T12:35:33.682Z,4.12
2018-11-20T12:36:33.153Z,4.11
2018-11-20T12:37:33.259Z,4.12
2018-11-20T12:38:33.002Z,4.11
2018-11-20T12:39:33.067Z,4.08
2018-11-20T12:40:32.983Z,4.12
2018-11-20T12:41:32.876Z,4.10
2018-11-20T12:42:32.664Z,4.12
2018-11-20T12:43:32.689Z,4.10
2018-11-20T12:44:32.503Z,4.10
2018-11-20T12:45:34.399Z,4.12
2018-11-20T12:46:34.609Z,4.15
2018-11-20T12:47:32.407Z,4.12
2018-11-20T12:48:32.169Z,4.15
2018-11-20T12:49:32.217Z,4.15
2018-11-20T12:50:32.013Z,4.08
2018-11-20T12:51:32.028Z,4.07
2018-11-20T12:52:31.851Z,4.08
2018-11-20T12:53:31.939Z,4.20
2018-11-20T12:54:31.686Z,4.12
2018-11-20T12:55:31.744Z,4.07
2018-11-20T12:56:31.526Z,4.15
2018-11-20T12:57:31.557Z,4.12
2018-11-20T12:58:31.351Z,4.10
2018-11-20T12:59:31.465Z,4.10
2018-11-20T13:00:31.191Z,4.11
2018-11-20T13:01:31.302Z,4.11
2018-11-20T13:02:31.033Z,4.11
2018-11-20T13:03:32.842Z,4.11
2018-11-20T13:04:30.863Z,4.11
2018-11-20T13:05:30.893Z,4.08
2018-11-20T13:06:30.704Z,4.08
2018-11-20T13:07:30.806Z,4.10
2018-11-20T13:08:31.197Z,4.22
2018-11-20T13:09:30.617Z,4.19
2018-11-20T13:10:30.375Z,4.19
2018-11-20T13:11:30.426Z,4.20
2018-11-20T13:12:30.205Z,4.22
2018-11-20T13:13:30.233Z,4.23
2018-11-20T13:14:30.047Z,4.22
2018-11-20T13:15:30.149Z,4.25
2018-11-20T13:16:29.892Z,4.22
2018-11-20T13:17:29.955Z,4.23
2018-11-20T13:18:29.719Z,4.25
2018-11-20T13:19:31.262Z,4.19